Terminal Aerodrome Forecast
Issued by NWS

Home | Current Version | Previous Version | Text Only | Print | Product List | Glossary On
Versions: 1 2 3 4 5 6 7 8 9 10 11 12 13 14 15 16 17 18 19 20 21 22 23 24 25 26 27 28 29
000
FTUS46 KMTR 210500 RRA
TAFSFO
TAF
KSFO 210544Z 2106/2212 21005KT P6SM FEW009 SCT015
      TEMPO 2106/2110 BKN012
     FM211000 21005KT P6SM OVC012
     FM211800 20016KT P6SM SCT020
     FM220400 21009KT P6SM SCT020=

USA.gov is the U.S. government's official web portal to all federal, state and local government web resources and services.